createdAt,value
2018-12-08T00:00:40.156Z,98.64
2018-12-08T00:01:40.141Z,98.83
2018-12-08T00:02:40.130Z,99.02
2018-12-08T00:03:40.116Z,98.83
2018-12-08T00:04:40.104Z,98.83
2018-12-08T00:05:40.094Z,97.97
2018-12-08T00:06:40.076Z,97.88
2018-12-08T00:07:40.067Z,98.35
2018-12-08T00:08:40.051Z,97.69
2018-12-08T00:09:40.037Z,97.31
2018-12-08T00:10:40.025Z,97.60
2018-12-08T00:11:40.020Z,97.78
2018-12-08T00:12:40.005Z,97.45
2018-12-08T00:13:39.984Z,98.16
2018-12-08T00:14:39.972Z,98.26
2018-12-08T00:15:39.961Z,98.73
2018-12-08T00:16:39.946Z,99.21
2018-12-08T00:17:39.932Z,99.87
2018-12-08T00:18:39.922Z,99.99
2018-12-08T00:19:39.905Z,99.99
2018-12-08T00:20:39.892Z,99.99
2018-12-08T00:21:39.879Z,99.99
2018-12-08T00:22:39.872Z,99.99
2018-12-08T00:23:39.853Z,99.99
2018-12-08T00:24:39.842Z,99.99
2018-12-08T00:25:39.826Z,99.99
2018-12-08T00:26:39.812Z,99.99
2018-12-08T00:27:39.799Z,99.99
2018-12-08T00:28:39.793Z,99.99
2018-12-08T00:29:39.777Z,99.99
2018-12-08T00:30:39.757Z,99.99
2018-12-08T00:31:39.746Z,99.99
2018-12-08T00:32:39.730Z,99.99
2018-12-08T00:33:39.719Z,99.99
2018-12-08T00:34:39.703Z,99.99
2018-12-08T00:35:39.694Z,99.99
2018-12-08T00:36:39.676Z,99.99
2018-12-08T00:37:39.662Z,99.99
2018-12-08T00:38:39.649Z,99.99
2018-12-08T00:39:39.635Z,99.99
2018-12-08T00:40:39.623Z,99.99
2018-12-08T00:41:39.612Z,99.99
2018-12-08T00:42:39.595Z,99.99
2018-12-08T00:43:39.582Z,99.99
2018-12-08T00:44:39.568Z,99.99
2018-12-08T00:45:39.555Z,99.99
2018-12-08T00:46:39.541Z,99.99
2018-12-08T00:47:39.530Z,99.99
2018-12-08T00:48:39.514Z,99.99
2018-12-08T00:49:39.500Z,99.99
2018-12-08T00:50:39.487Z,99.99
2018-12-08T00:51:39.475Z,99.99
2018-12-08T00:52:39.462Z,99.99
2018-12-08T00:53:39.446Z,99.99
2018-12-08T00:54:39.433Z,99.99
2018-12-08T00:55:39.422Z,99.99
2018-12-08T00:56:39.408Z,99.99
2018-12-08T00:57:39.394Z,99.99
2018-12-08T00:58:39.380Z,99.99
2018-12-08T00:59:39.370Z,99.99
2018-12-08T01:00:39.356Z,99.99
2018-12-08T01:01:39.340Z,99.99
2018-12-08T01:02:39.329Z,99.99
2018-12-08T01:04:39.301Z,99.99
2018-12-08T01:05:39.290Z,99.99
2018-12-08T01:06:39.274Z,99.99
2018-12-08T01:07:39.261Z,99.99
2018-12-08T01:08:39.249Z,99.99
2018-12-08T01:09:39.237Z,99.99
2018-12-08T01:10:39.221Z,99.99
2018-12-08T01:11:39.207Z,99.99
2018-12-08T01:12:39.198Z,99.99
2018-12-08T01:13:39.183Z,99.99
2018-12-08T01:14:39.168Z,99.99
2018-12-08T01:15:39.156Z,99.99
2018-12-08T01:16:39.142Z,99.99
2018-12-08T01:17:39.129Z,99.99
2018-12-08T01:18:39.118Z,99.99
2018-12-08T01:19:39.103Z,99.99
2018-12-08T01:20:39.090Z,99.99
2018-12-08T01:21:39.076Z,99.97
2018-12-08T01:22:39.063Z,99.99
2018-12-08T01:23:39.050Z,99.58
2018-12-08T01:24:39.037Z,99.40
2018-12-08T01:25:39.024Z,99.68
2018-12-08T01:26:39.010Z,99.99
2018-12-08T01:27:40.948Z,99.99
2018-12-08T01:28:38.984Z,99.49
2018-12-08T01:29:38.975Z,99.77
2018-12-08T01:30:38.958Z,99.58
2018-12-08T01:31:38.945Z,99.49
2018-12-08T01:32:38.932Z,98.35
2018-12-08T01:33:38.918Z,97.78
2018-12-08T01:34:38.908Z,97.97
2018-12-08T01:35:38.901Z,97.97
2018-12-08T01:36:38.883Z,98.07
2018-12-08T01:37:38.870Z,98.26
2018-12-08T01:38:38.857Z,98.35
2018-12-08T01:39:38.843Z,98.83
2018-12-08T01:40:38.831Z,98.83
2018-12-08T01:41:38.817Z,98.07
2018-12-08T01:42:38.803Z,98.07
2018-12-08T01:43:38.791Z,98.16
2018-12-08T01:44:38.778Z,98.64
2018-12-08T01:45:38.764Z,98.83
2018-12-08T01:46:38.750Z,98.07
2018-12-08T01:47:38.737Z,97.88
2018-12-08T01:48:38.724Z,98.73
2018-12-08T01:49:38.712Z,98.64
2018-12-08T01:50:38.698Z,98.07
2018-12-08T01:51:38.685Z,98.35
2018-12-08T01:52:38.673Z,97.88
2018-12-08T01:53:38.659Z,97.88
2018-12-08T01:54:38.644Z,97.88
2018-12-08T01:55:38.632Z,97.31
2018-12-08T01:56:38.620Z,97.12
2018-12-08T01:57:38.604Z,97.31
2018-12-08T01:58:38.592Z,97.12
2018-12-08T01:59:38.578Z,96.83
2018-12-08T02:00:38.566Z,96.74
2018-12-08T02:01:38.551Z,96.36
2018-12-08T02:02:38.539Z,96.45
2018-12-08T02:03:38.525Z,96.93
2018-12-08T02:04:38.513Z,97.12
2018-12-08T02:05:38.499Z,96.64
2018-12-08T02:06:38.490Z,97.22
2018-12-08T02:07:38.476Z,97.12
2018-12-08T02:08:38.459Z,96.93
2018-12-08T02:09:38.447Z,96.93
2018-12-08T02:10:38.433Z,96.93
2018-12-08T02:11:38.421Z,97.22
2018-12-08T02:12:38.407Z,96.45
2018-12-08T02:13:38.392Z,96.26
2018-12-08T02:14:38.379Z,96.36
2018-12-08T02:15:38.366Z,96.83
2018-12-08T02:16:38.355Z,97.12
2018-12-08T02:17:38.339Z,97.31
2018-12-08T02:18:38.326Z,97.12
2018-12-08T02:19:38.314Z,97.12
2018-12-08T02:20:38.301Z,96.93
2018-12-08T02:21:38.287Z,96.36
2018-12-08T02:22:38.272Z,96.45
2018-12-08T02:23:38.260Z,96.50
2018-12-08T02:24:38.249Z,96.26
2018-12-08T02:25:38.236Z,96.26
2018-12-08T02:26:38.223Z,96.26
2018-12-08T02:27:38.206Z,96.69
2018-12-08T02:28:38.197Z,96.60
2018-12-08T02:29:38.187Z,96.41
2018-12-08T02:30:38.168Z,97.07
2018-12-08T02:31:38.155Z,97.07
2018-12-08T02:32:38.141Z,97.45
2018-12-08T02:33:38.128Z,96.50
2018-12-08T02:34:38.115Z,96.88
2018-12-08T02:35:38.105Z,96.60
2018-12-08T02:36:38.089Z,96.41
2018-12-08T02:37:38.075Z,96.88
2018-12-08T02:38:38.065Z,96.12
2018-12-08T02:39:38.050Z,96.98
2018-12-08T02:40:38.037Z,96.69
2018-12-08T02:41:38.023Z,96.98
2018-12-08T02:42:38.010Z,96.60
2018-12-08T02:43:38.001Z,96.88
2018-12-08T02:44:37.985Z,97.07
2018-12-08T02:45:37.972Z,97.07
2018-12-08T02:46:37.960Z,96.79
2018-12-08T02:47:37.946Z,96.98
2018-12-08T02:48:37.935Z,96.98
2018-12-08T02:49:37.930Z,97.17
2018-12-08T02:50:37.906Z,96.98
2018-12-08T02:51:37.893Z,97.36
2018-12-08T02:52:37.880Z,97.45
2018-12-08T02:53:37.867Z,97.55
2018-12-08T02:54:37.853Z,97.55
2018-12-08T02:55:37.840Z,97.74
2018-12-08T02:56:37.828Z,97.55
2018-12-08T02:57:37.815Z,98.12
2018-12-08T02:58:37.801Z,97.74
2018-12-08T02:59:37.794Z,98.12
2018-12-08T03:00:37.779Z,97.88
2018-12-08T03:01:37.761Z,98.26
2018-12-08T03:02:37.749Z,97.69
2018-12-08T03:03:37.735Z,98.07
2018-12-08T03:04:37.723Z,97.83
2018-12-08T03:05:37.710Z,98.35
2018-12-08T03:06:37.696Z,97.50
2018-12-08T03:07:37.685Z,98.02
2018-12-08T03:08:37.670Z,97.92
2018-12-08T03:09:37.661Z,97.55
2018-12-08T03:10:37.643Z,97.07
2018-12-08T03:11:37.630Z,97.36
2018-12-08T03:12:37.617Z,97.36
2018-12-08T03:13:37.604Z,97.83
2018-12-08T03:14:37.593Z,98.12
2018-12-08T03:15:37.578Z,98.12
2018-12-08T03:16:37.565Z,97.92
2018-12-08T03:17:37.550Z,97.83
2018-12-08T03:18:37.538Z,97.45
2018-12-08T03:19:37.675Z,97.55
2018-12-08T03:20:37.512Z,97.55
2018-12-08T03:21:37.497Z,97.45
2018-12-08T03:22:37.485Z,97.55
2018-12-08T03:23:37.472Z,98.02
2018-12-08T03:24:37.458Z,97.55
2018-12-08T03:25:37.466Z,97.45
2018-12-08T03:26:37.431Z,97.92
2018-12-08T03:27:37.418Z,97.92
2018-12-08T03:28:37.405Z,97.83
2018-12-08T03:29:37.392Z,97.92
2018-12-08T03:30:37.380Z,98.02
2018-12-08T03:31:37.367Z,97.55
2018-12-08T03:32:37.354Z,97.07
2018-12-08T03:33:37.341Z,97.55
2018-12-08T03:34:37.390Z,97.64
2018-12-08T03:35:37.317Z,97.07
2018-12-08T03:36:37.300Z,97.55
2018-12-08T03:37:37.287Z,97.17
2018-12-08T03:38:37.273Z,97.17
2018-12-08T03:39:37.265Z,96.31
2018-12-08T03:40:38.070Z,96.50
2018-12-08T03:41:37.236Z,96.79
2018-12-08T03:42:37.220Z,96.31
2018-12-08T03:43:37.210Z,96.41
2018-12-08T03:44:37.199Z,96.31
2018-12-08T03:45:37.183Z,95.75
2018-12-08T03:46:37.170Z,95.94
2018-12-08T03:47:37.156Z,96.12
2018-12-08T03:48:37.143Z,96.12
2018-12-08T03:49:37.131Z,96.12
2018-12-08T03:50:37.119Z,95.84
2018-12-08T03:51:37.104Z,96.60
2018-12-08T03:52:37.093Z,96.50
2018-12-08T03:53:37.080Z,96.50
2018-12-08T03:54:37.067Z,95.84
2018-12-08T03:55:37.057Z,95.94
2018-12-08T03:56:37.039Z,96.22
2018-12-08T03:57:37.036Z,96.41
2018-12-08T03:58:37.015Z,96.50
2018-12-08T03:59:37.002Z,96.60
2018-12-08T04:00:36.989Z,96.41
2018-12-08T04:01:36.975Z,96.41
2018-12-08T04:02:36.963Z,96.12
2018-12-08T04:03:36.950Z,95.94
2018-12-08T04:04:36.936Z,95.94
2018-12-08T04:05:36.924Z,96.31
2018-12-08T04:06:36.910Z,96.88
2018-12-08T04:07:36.900Z,97.07
2018-12-08T04:08:37.094Z,97.27
2018-12-08T04:09:36.875Z,96.79
2018-12-08T04:10:36.860Z,97.07
2018-12-08T04:11:36.846Z,96.98
2018-12-08T04:12:36.835Z,97.07
2018-12-08T04:13:36.820Z,97.36
2018-12-08T04:14:36.807Z,96.79
2018-12-08T04:15:36.807Z,97.36
2018-12-08T04:16:36.782Z,97.27
2018-12-08T04:17:36.872Z,97.45
2018-12-08T04:18:36.756Z,97.55
2018-12-08T04:19:36.743Z,98.12
2018-12-08T04:20:36.730Z,97.92
2018-12-08T04:21:36.716Z,98.12
2018-12-08T04:22:36.707Z,98.40
2018-12-08T04:23:36.691Z,97.74
2018-12-08T04:24:36.677Z,97.92
2018-12-08T04:25:36.667Z,97.64
2018-12-08T04:26:36.651Z,97.83
2018-12-08T04:27:36.639Z,97.55
2018-12-08T04:28:36.626Z,97.92
2018-12-08T04:29:36.613Z,98.12
2018-12-08T04:30:36.601Z,97.92
2018-12-08T04:31:36.588Z,97.83
2018-12-08T04:32:36.574Z,97.83
2018-12-08T04:33:36.562Z,97.74
2018-12-08T04:34:36.550Z,97.74
2018-12-08T04:35:36.536Z,98.02
2018-12-08T04:36:36.524Z,98.02
2018-12-08T04:37:36.509Z,98.02
2018-12-08T04:38:36.506Z,98.79
2018-12-08T04:39:36.487Z,99.35
2018-12-08T04:40:36.472Z,99.54
2018-12-08T04:41:36.462Z,99.99
2018-12-08T04:42:36.446Z,99.99
2018-12-08T04:43:36.437Z,99.99
2018-12-08T04:44:36.419Z,99.99
2018-12-08T04:45:36.406Z,99.99
2018-12-08T04:46:36.392Z,99.99
2018-12-08T04:47:36.384Z,99.99
2018-12-08T04:48:36.370Z,99.99
2018-12-08T04:49:36.353Z,99.99
2018-12-08T04:50:36.339Z,99.99
2018-12-08T04:51:36.326Z,99.99
2018-12-08T04:52:36.318Z,99.99
2018-12-08T04:53:36.301Z,99.99
2018-12-08T04:54:36.287Z,99.99
2018-12-08T04:55:36.275Z,99.99
2018-12-08T04:56:36.261Z,99.99
2018-12-08T04:57:36.248Z,99.99
2018-12-08T04:58:36.234Z,99.99
2018-12-08T04:59:36.229Z,99.99
2018-12-08T05:00:36.209Z,99.99
2018-12-08T05:01:36.199Z,99.99
2018-12-08T05:02:36.187Z,99.99
2018-12-08T05:03:36.170Z,99.99
2018-12-08T05:04:36.158Z,99.99
2018-12-08T05:05:36.153Z,99.99
2018-12-08T05:06:36.133Z,99.99
2018-12-08T05:07:36.118Z,99.99
2018-12-08T05:08:36.106Z,98.97
2018-12-08T05:09:36.091Z,98.02
2018-12-08T05:10:36.078Z,98.79
2018-12-08T05:11:36.070Z,98.21
2018-12-08T05:12:36.056Z,97.83
2018-12-08T05:13:36.040Z,98.88
2018-12-08T05:14:36.044Z,99.92
2018-12-08T05:15:36.013Z,99.99
2018-12-08T05:16:36.001Z,99.99
2018-12-08T05:17:35.990Z,99.99
2018-12-08T05:18:35.976Z,99.99
2018-12-08T05:19:35.960Z,99.99
2018-12-08T05:20:35.949Z,99.99
2018-12-08T05:21:35.938Z,99.99
2018-12-08T05:22:35.926Z,99.99
2018-12-08T05:23:35.907Z,99.99
2018-12-08T05:24:35.894Z,99.99
2018-12-08T05:25:35.880Z,99.99
2018-12-08T05:26:35.868Z,99.99
2018-12-08T05:27:35.853Z,99.99
2018-12-08T05:28:35.842Z,99.99
2018-12-08T05:29:35.826Z,99.99
2018-12-08T05:30:35.812Z,99.99
2018-12-08T05:31:35.803Z,99.99
2018-12-08T05:32:35.786Z,99.99
2018-12-08T05:33:35.775Z,99.99
2018-12-08T05:34:35.769Z,99.99
2018-12-08T05:35:35.746Z,99.99
2018-12-08T05:36:35.734Z,99.99
2018-12-08T05:37:35.718Z,99.99
2018-12-08T05:38:35.705Z,99.99
2018-12-08T05:39:35.691Z,99.99
2018-12-08T05:40:35.681Z,99.99
2018-12-08T05:41:35.664Z,99.99
2018-12-08T05:42:35.651Z,99.99
2018-12-08T05:43:35.638Z,99.99
2018-12-08T05:44:35.624Z,99.99
2018-12-08T05:45:35.611Z,99.99
2018-12-08T05:46:35.596Z,99.99
2018-12-08T05:47:35.584Z,99.99
2018-12-08T05:48:35.570Z,99.99
2018-12-08T05:49:35.556Z,99.99
2018-12-08T05:50:35.543Z,99.99
2018-12-08T05:51:35.531Z,99.99
2018-12-08T05:52:35.517Z,99.99
2018-12-08T05:53:35.502Z,99.99
2018-12-08T05:54:35.490Z,99.99
2018-12-08T05:55:35.476Z,99.99
2018-12-08T05:56:35.466Z,99.99
2018-12-08T05:57:35.455Z,99.99
2018-12-08T05:58:35.437Z,99.99
2018-12-08T05:59:35.424Z,99.99
2018-12-08T06:00:35.412Z,99.99
2018-12-08T06:01:35.395Z,99.99
2018-12-08T06:02:35.383Z,99.99
2018-12-08T06:03:35.369Z,99.99
2018-12-08T06:04:35.356Z,99.99
2018-12-08T06:05:35.342Z,99.99
2018-12-08T06:06:35.328Z,99.99
2018-12-08T06:07:35.315Z,99.99
2018-12-08T06:08:35.302Z,99.99
2018-12-08T06:09:35.289Z,99.99
2018-12-08T06:10:35.279Z,99.99
2018-12-08T06:11:35.261Z,99.99
2018-12-08T06:12:35.344Z,99.99
2018-12-08T06:13:35.235Z,99.99
2018-12-08T06:14:35.225Z,99.99
2018-12-08T06:15:35.207Z,99.99
2018-12-08T06:16:35.195Z,99.99
2018-12-08T06:17:35.180Z,99.99
2018-12-08T06:18:35.165Z,99.99
2018-12-08T06:19:35.153Z,99.99
2018-12-08T06:20:35.139Z,99.99
2018-12-08T06:21:35.125Z,99.99
2018-12-08T06:22:35.112Z,99.99
2018-12-08T06:23:35.101Z,99.99
2018-12-08T06:24:35.085Z,99.99
2018-12-08T06:25:35.080Z,99.99
2018-12-08T06:26:35.058Z,99.99
2018-12-08T06:27:35.044Z,99.99
2018-12-08T06:28:35.081Z,99.99
2018-12-08T06:29:35.018Z,99.99
2018-12-08T06:30:35.004Z,99.99
2018-12-08T06:31:34.992Z,99.99
2018-12-08T06:32:34.977Z,99.99
2018-12-08T06:33:34.964Z,99.99
2018-12-08T06:34:34.954Z,99.99
2018-12-08T06:35:34.940Z,99.99
2018-12-08T06:36:34.924Z,99.99
2018-12-08T06:37:34.910Z,99.99
2018-12-08T06:38:34.896Z,99.99
2018-12-08T06:39:34.884Z,99.99
2018-12-08T06:40:34.870Z,99.99
2018-12-08T06:41:34.857Z,99.99
2018-12-08T06:42:34.844Z,99.99
2018-12-08T06:43:34.830Z,99.99
2018-12-08T06:44:34.816Z,99.99
2018-12-08T06:45:34.806Z,99.99
2018-12-08T06:46:34.790Z,99.99
2018-12-08T06:47:34.776Z,99.99
2018-12-08T06:48:34.762Z,99.99
2018-12-08T06:49:34.748Z,99.99
2018-12-08T06:50:34.736Z,99.99
2018-12-08T06:51:34.725Z,99.99
2018-12-08T06:52:34.709Z,99.99
2018-12-08T06:53:34.706Z,99.99
2018-12-08T06:54:34.682Z,99.99
2018-12-08T06:55:34.668Z,99.99
2018-12-08T06:56:34.655Z,99.99
2018-12-08T06:57:34.641Z,99.99
2018-12-08T06:58:34.681Z,99.99
2018-12-08T06:59:34.615Z,99.99
2018-12-08T07:00:34.604Z,99.99
2018-12-08T07:01:34.588Z,99.99
2018-12-08T07:02:34.576Z,99.99
2018-12-08T07:03:34.766Z,99.99
2018-12-08T07:04:34.756Z,99.99
2018-12-08T07:05:34.536Z,99.99
2018-12-08T07:06:34.522Z,99.99
2018-12-08T07:07:34.509Z,99.99
2018-12-08T07:08:34.496Z,99.99
2018-12-08T07:09:34.582Z,99.99
2018-12-08T07:10:34.470Z,99.99
2018-12-08T07:11:34.457Z,99.99
2018-12-08T07:12:34.443Z,99.99
2018-12-08T07:13:34.429Z,99.99
2018-12-08T07:14:34.417Z,99.99
2018-12-08T07:15:34.402Z,99.99
2018-12-08T07:16:34.390Z,99.99
2018-12-08T07:17:34.376Z,99.99
2018-12-08T07:18:34.363Z,99.99
2018-12-08T07:19:34.349Z,99.99
2018-12-08T07:20:34.342Z,99.99
2018-12-08T07:21:34.324Z,99.99
2018-12-08T07:22:34.311Z,99.99
2018-12-08T07:23:34.297Z,99.99
2018-12-08T07:24:34.283Z,99.99
2018-12-08T07:25:34.270Z,99.99
2018-12-08T07:26:34.256Z,99.99
2018-12-08T07:27:34.243Z,99.99
2018-12-08T07:28:34.230Z,99.99
2018-12-08T07:29:34.216Z,99.99
2018-12-08T07:30:34.204Z,99.99
2018-12-08T07:31:34.189Z,99.99
2018-12-08T07:32:38.798Z,99.99
2018-12-08T07:33:34.163Z,99.99
2018-12-08T07:34:34.150Z,99.99
2018-12-08T07:35:34.138Z,99.99
2018-12-08T07:36:34.124Z,99.99
2018-12-08T07:37:34.112Z,99.99
2018-12-08T07:38:34.098Z,99.99
2018-12-08T07:39:34.085Z,99.99
2018-12-08T07:40:34.086Z,99.99
2018-12-08T07:41:34.061Z,99.99
2018-12-08T07:42:34.046Z,99.99
2018-12-08T07:43:34.032Z,99.99
2018-12-08T07:44:34.074Z,99.99
2018-12-08T07:45:34.005Z,99.99
2018-12-08T07:46:33.992Z,99.99
2018-12-08T07:47:33.981Z,99.99
2018-12-08T07:48:33.966Z,99.99
2018-12-08T07:49:33.953Z,99.99
2018-12-08T07:50:33.939Z,99.99
2018-12-08T07:51:33.927Z,99.99
2018-12-08T07:52:33.915Z,99.99
2018-12-08T07:53:33.900Z,99.99
2018-12-08T07:54:33.887Z,99.99
2018-12-08T07:55:33.874Z,99.99
2018-12-08T07:56:33.860Z,99.99
2018-12-08T07:57:33.849Z,99.99
2018-12-08T07:58:33.834Z,99.99
2018-12-08T07:59:33.824Z,99.99
2018-12-08T08:00:33.808Z,99.99
2018-12-08T08:01:33.795Z,99.99
2018-12-08T08:02:33.782Z,99.99
2018-12-08T08:03:33.774Z,99.99
2018-12-08T08:04:34.110Z,99.99
2018-12-08T08:05:33.742Z,99.99
2018-12-08T08:06:33.734Z,99.99
2018-12-08T08:07:33.717Z,99.99
2018-12-08T08:08:33.704Z,99.99
2018-12-08T08:09:33.689Z,99.99
2018-12-08T08:10:33.677Z,99.99
2018-12-08T08:11:33.664Z,99.99
2018-12-08T08:12:33.658Z,99.99
2018-12-08T08:13:33.645Z,99.99
2018-12-08T08:14:33.677Z,99.99
2018-12-08T08:15:33.611Z,99.99
2018-12-08T08:16:33.605Z,99.99
2018-12-08T08:17:33.585Z,99.99
2018-12-08T08:18:33.573Z,99.99
2018-12-08T08:19:33.615Z,99.99
2018-12-08T08:20:33.547Z,99.99
2018-12-08T08:21:33.540Z,99.99
2018-12-08T08:22:33.524Z,99.99
2018-12-08T08:23:33.514Z,99.99
2018-12-08T08:24:33.501Z,99.99
2018-12-08T08:25:33.484Z,99.99
2018-12-08T08:26:33.470Z,99.99
2018-12-08T08:27:33.459Z,99.99
2018-12-08T08:28:33.448Z,99.99
2018-12-08T08:29:33.486Z,99.99
2018-12-08T08:30:33.418Z,99.99
2018-12-08T08:31:33.412Z,99.99
2018-12-08T08:32:33.394Z,99.99
2018-12-08T08:33:33.380Z,99.99
2018-12-08T08:34:33.369Z,99.99
2018-12-08T08:35:33.355Z,99.99
2018-12-08T08:36:33.342Z,99.99
2018-12-08T08:37:33.329Z,99.99
2018-12-08T08:38:33.317Z,99.99
2018-12-08T08:39:33.305Z,99.99
2018-12-08T08:40:33.294Z,99.99
2018-12-08T08:41:33.280Z,99.99
2018-12-08T08:42:33.267Z,99.99
2018-12-08T08:43:33.254Z,99.99
2018-12-08T08:44:33.241Z,99.99
2018-12-08T08:45:33.230Z,99.99
2018-12-08T08:46:33.216Z,99.99
2018-12-08T08:47:33.204Z,99.99
2018-12-08T08:48:33.194Z,99.99
2018-12-08T08:49:33.178Z,99.99
2018-12-08T08:50:33.168Z,99.99
2018-12-08T08:51:33.152Z,99.99
2018-12-08T08:52:33.149Z,99.99
2018-12-08T08:53:33.126Z,99.99
2018-12-08T08:54:33.163Z,99.99
2018-12-08T08:55:33.104Z,99.99
2018-12-08T08:56:33.095Z,99.99
2018-12-08T08:57:33.077Z,99.99
2018-12-08T08:58:33.065Z,99.99
2018-12-08T08:59:33.054Z,99.99
2018-12-08T09:00:33.088Z,99.99
2018-12-08T09:01:33.025Z,99.99
2018-12-08T09:02:33.013Z,99.99
2018-12-08T09:03:33.001Z,99.99
2018-12-08T09:04:32.989Z,99.99
2018-12-08T09:05:32.975Z,99.99
2018-12-08T09:06:33.163Z,99.99
2018-12-08T09:07:33.002Z,99.99
2018-12-08T09:08:32.936Z,99.99
2018-12-08T09:09:32.926Z,99.99
2018-12-08T09:10:32.910Z,99.99
2018-12-08T09:11:32.897Z,99.99
2018-12-08T09:12:32.886Z,99.99
2018-12-08T09:13:32.871Z,99.99
2018-12-08T09:14:32.858Z,99.99
2018-12-08T09:15:32.847Z,99.99
2018-12-08T09:16:32.833Z,99.99
2018-12-08T09:17:32.820Z,99.99
2018-12-08T09:18:32.808Z,99.99
2018-12-08T09:19:32.797Z,99.99
2018-12-08T09:20:32.783Z,99.99
2018-12-08T09:21:32.770Z,99.99
2018-12-08T09:22:32.758Z,99.99
2018-12-08T09:23:32.745Z,99.99
2018-12-08T09:24:32.735Z,99.99
2018-12-08T09:25:32.720Z,99.99
2018-12-08T09:26:32.758Z,99.99
2018-12-08T09:27:32.694Z,99.99
2018-12-08T09:28:32.684Z,99.99
2018-12-08T09:29:32.670Z,99.99
2018-12-08T09:30:32.657Z,99.99
2018-12-08T09:31:32.649Z,99.99
2018-12-08T09:32:32.635Z,99.99
2018-12-08T09:33:32.619Z,99.99
2018-12-08T09:34:32.606Z,99.99
2018-12-08T09:35:32.598Z,99.99
2018-12-08T09:36:32.584Z,99.99
2018-12-08T09:37:32.576Z,99.99
2018-12-08T09:38:32.759Z,99.99
2018-12-08T09:39:32.544Z,99.99
2018-12-08T09:40:32.533Z,99.99
2018-12-08T09:41:32.570Z,99.99
2018-12-08T09:42:32.507Z,99.99
2018-12-08T09:43:32.496Z,99.99
2018-12-08T09:44:32.483Z,99.99
2018-12-08T09:45:32.480Z,99.99
2018-12-08T09:46:32.462Z,99.99
2018-12-08T09:47:32.451Z,99.99
2018-12-08T09:48:32.435Z,99.99
2018-12-08T09:49:32.426Z,99.99
2018-12-08T09:50:32.409Z,99.99
2018-12-08T09:51:32.400Z,99.99
2018-12-08T09:52:32.385Z,99.99
2018-12-08T09:53:32.372Z,99.99
2018-12-08T09:54:32.363Z,99.99
2018-12-08T09:55:32.357Z,99.99
2018-12-08T09:56:32.337Z,99.99
2018-12-08T09:57:32.323Z,99.99
2018-12-08T09:58:32.317Z,99.99
2018-12-08T09:59:32.302Z,99.45
2018-12-08T10:00:32.299Z,99.99
2018-12-08T10:01:32.281Z,99.93
2018-12-08T10:02:32.269Z,99.99
2018-12-08T10:03:32.252Z,99.84
2018-12-08T10:04:32.244Z,99.07
2018-12-08T10:05:32.228Z,98.88
2018-12-08T10:06:32.215Z,98.60
2018-12-08T10:07:32.794Z,98.88
2018-12-08T10:08:32.195Z,98.31
2018-12-08T10:09:32.180Z,97.74
2018-12-08T10:10:32.172Z,98.41
2018-12-08T10:11:32.155Z,98.88
2018-12-08T10:12:32.146Z,98.03
2018-12-08T10:13:32.138Z,98.50
2018-12-08T10:14:32.119Z,97.88
2018-12-08T10:15:32.112Z,97.98
2018-12-08T10:16:32.096Z,97.17
2018-12-08T10:17:32.083Z,97.88
2018-12-08T10:18:32.163Z,97.13
2018-12-08T10:19:32.060Z,97.60
2018-12-08T10:20:32.051Z,97.03
2018-12-08T10:21:32.044Z,96.55
2018-12-08T10:22:32.030Z,96.26
2018-12-08T10:23:32.015Z,96.65
2018-12-08T10:24:32.054Z,96.46
2018-12-08T10:25:31.990Z,97.13
2018-12-08T10:26:31.981Z,96.26
2018-12-08T10:27:31.967Z,95.60
2018-12-08T10:28:31.955Z,95.70
2018-12-08T10:29:31.948Z,96.26
2018-12-08T10:30:31.940Z,96.08
2018-12-08T10:31:31.919Z,96.08
2018-12-08T10:32:31.908Z,95.41
2018-12-08T10:33:31.904Z,95.60
2018-12-08T10:34:31.888Z,95.79
2018-12-08T10:35:31.873Z,95.79
2018-12-08T10:36:31.863Z,95.70
2018-12-08T10:37:31.850Z,96.08
2018-12-08T10:38:31.844Z,95.32
2018-12-08T10:39:31.826Z,95.32
2018-12-08T10:40:31.816Z,95.60
2018-12-08T10:41:31.803Z,95.32
2018-12-08T10:42:31.793Z,94.74
2018-12-08T10:43:31.785Z,94.65
2018-12-08T10:44:31.775Z,94.84
2018-12-08T10:45:31.762Z,94.56
2018-12-08T10:46:31.746Z,94.46
2018-12-08T10:47:31.738Z,95.22
2018-12-08T10:48:31.725Z,95.41
2018-12-08T10:49:31.717Z,95.51
2018-12-08T10:50:31.706Z,95.32
2018-12-08T10:51:31.686Z,95.70
2018-12-08T10:52:31.675Z,95.70
2018-12-08T10:53:31.662Z,96.36
2018-12-08T10:54:31.651Z,95.70
2018-12-08T10:55:31.640Z,96.46
2018-12-08T10:56:31.628Z,95.89
2018-12-08T10:57:31.671Z,95.60
2018-12-08T10:58:31.607Z,96.26
2018-12-08T10:59:31.597Z,96.36
2018-12-08T11:00:31.584Z,95.98
2018-12-08T11:01:31.569Z,96.08
2018-12-08T11:02:31.558Z,96.26
2018-12-08T11:03:31.548Z,95.89
2018-12-08T11:04:31.536Z,96.46
2018-12-08T11:05:31.529Z,96.36
2018-12-08T11:06:31.516Z,96.08
2018-12-08T11:07:31.503Z,96.46
2018-12-08T11:08:31.495Z,97.31
2018-12-08T11:09:31.480Z,97.31
2018-12-08T11:10:31.465Z,98.08
2018-12-08T11:11:31.658Z,97.79
2018-12-08T11:12:31.442Z,98.55
2018-12-08T11:13:31.430Z,98.55
2018-12-08T11:14:31.417Z,99.12
2018-12-08T11:15:31.406Z,98.17
2018-12-08T11:16:31.394Z,98.36
2018-12-08T11:17:31.382Z,97.69
2018-12-08T11:18:31.376Z,98.83
2018-12-08T11:19:31.359Z,99.02
2018-12-08T11:20:31.348Z,99.02
2018-12-08T11:21:31.336Z,98.36
2018-12-08T11:22:31.379Z,97.50
2018-12-08T11:23:31.312Z,97.22
2018-12-08T11:24:31.300Z,97.13
2018-12-08T11:25:31.288Z,97.31
2018-12-08T11:26:31.278Z,97.13
2018-12-08T11:27:31.270Z,96.94
2018-12-08T11:28:31.259Z,97.50
2018-12-08T11:29:31.241Z,98.17
2018-12-08T11:30:31.472Z,99.60
2018-12-08T11:31:31.218Z,99.99
2018-12-08T11:32:31.256Z,99.99
2018-12-08T11:33:31.196Z,99.99
2018-12-08T11:34:31.186Z,99.99
2018-12-08T11:35:31.171Z,99.99
2018-12-08T11:36:31.158Z,99.99
2018-12-08T11:37:31.145Z,99.99
2018-12-08T11:38:31.138Z,99.99
2018-12-08T11:39:31.122Z,99.99
2018-12-08T11:40:31.110Z,99.99
2018-12-08T11:41:31.098Z,99.99
2018-12-08T11:42:31.090Z,99.99
2018-12-08T11:43:31.073Z,99.99
2018-12-08T11:44:31.067Z,99.99
2018-12-08T11:45:31.047Z,99.99
2018-12-08T11:46:31.039Z,99.99
2018-12-08T11:47:31.025Z,99.99
2018-12-08T11:48:31.062Z,99.99
2018-12-08T11:49:31.001Z,99.99
2018-12-08T11:50:30.988Z,99.99
2018-12-08T11:51:30.975Z,99.99
2018-12-08T11:52:30.963Z,99.69
2018-12-08T11:53:30.954Z,99.55
2018-12-08T11:54:30.939Z,99.50
2018-12-08T11:55:30.927Z,98.93
2018-12-08T11:56:30.915Z,99.02
2018-12-08T11:57:30.903Z,98.17
2018-12-08T11:58:30.890Z,97.69
2018-12-08T11:59:30.880Z,98.08
2018-12-08T12:00:30.868Z,97.60
2018-12-08T12:01:30.856Z,97.41
2018-12-08T12:02:30.846Z,96.74
2018-12-08T12:03:30.831Z,96.08
2018-12-08T12:04:30.820Z,96.36
2018-12-08T12:05:30.810Z,96.46
2018-12-08T12:06:30.796Z,96.65
2018-12-08T12:07:30.787Z,96.26
2018-12-08T12:08:30.773Z,96.65
2018-12-08T12:09:30.761Z,96.26
2018-12-08T12:10:30.751Z,96.26
2018-12-08T12:11:30.742Z,95.98
2018-12-08T12:12:30.730Z,96.08
2018-12-08T12:13:30.714Z,95.89
2018-12-08T12:14:30.702Z,95.70
2018-12-08T12:15:30.694Z,95.70
2018-12-08T12:16:30.682Z,95.17
2018-12-08T12:17:30.673Z,95.36
2018-12-08T12:18:30.660Z,95.27
2018-12-08T12:19:30.646Z,94.89
2018-12-08T12:20:30.706Z,94.79
2018-12-08T12:21:30.626Z,94.89
2018-12-08T12:22:30.612Z,95.36
2018-12-08T12:23:30.599Z,95.46
2018-12-08T12:24:30.594Z,95.56
2018-12-08T12:25:30.575Z,95.36
2018-12-08T12:26:30.564Z,95.22
2018-12-08T12:27:30.554Z,94.89
2018-12-08T12:28:30.543Z,94.98
2018-12-08T12:29:30.529Z,95.27
2018-12-08T12:30:30.527Z,94.42
2018-12-08T12:31:30.508Z,94.42
2018-12-08T12:32:30.497Z,94.51
2018-12-08T12:33:30.534Z,94.60
2018-12-08T12:34:30.474Z,93.94
2018-12-08T12:35:30.461Z,94.79
2018-12-08T12:36:30.451Z,95.65
2018-12-08T12:37:30.438Z,94.13
2018-12-08T12:38:30.434Z,94.32
2018-12-08T12:39:30.416Z,93.74
2018-12-08T12:40:30.406Z,94.32
2018-12-08T12:41:30.395Z,94.22
2018-12-08T12:42:30.385Z,93.55
2018-12-08T12:43:30.372Z,93.55
2018-12-08T12:44:30.360Z,93.74
2018-12-08T12:45:30.347Z,94.13
2018-12-08T12:46:30.336Z,93.94
2018-12-08T12:47:30.326Z,93.94
2018-12-08T12:48:30.314Z,94.32
2018-12-08T12:49:30.306Z,94.13
2018-12-08T12:50:30.295Z,94.22
2018-12-08T12:51:30.283Z,94.13
2018-12-08T12:52:30.271Z,94.60
2018-12-08T12:53:30.256Z,94.13